Priwall — V2OX8 — position and weather

sailwx.info

Track history (hours):
 
Tides and Currents Weather Stations Pressure Air Temp Water Temp Dewpoint Dewpoint Depression Visibility Wind Speed Wind Dir Waves Ship Positions

Priwall

Last reported at 2015-Jul-03 06:32 UTC. Time now 2015-Jul-06 11:23 UTC.
Position N 36°06' W 005°24'.

Length 88 m; draft 3.3 m.

Type: Ship. MMSI: 304739000.

Date/timePositionNaut miles runAvg speedWind from/ knotsBaromVisibWave heightAir tempDewpointWater temp
2015-Jul-03 06:32N 36°06' W 005°24'7 7.1
2015-Jul-03 05:32N 36°02' W 005°17'5 4.9
2015-Jul-03 04:33N 35°59' W 005°21'7 7.5
2015-Jul-03 03:34N 35°57' W 005°30'223 8.0
2015-Jul-01 23:33N 37°28' W 009°45'57 8.9
2015-Jul-01 17:08N 38°24' W 010°01'6 8.9
2015-Jul-01 16:29N 38°29' W 010°02'8 8.8
2015-Jul-01 15:31N 38°37' W 010°05'9 8.8
2015-Jul-01 14:33N 38°46' W 010°06'9 8.6
2015-Jul-01 13:33N 38°55' W 010°06'8 8.5
2015-Jul-01 12:34N 39°03' W 010°06'9 8.4
2015-Jul-01 11:33N 39°11' W 010°06'  
2015-Jun-27 08:33N 51°58' W 005°52'9 8.3
2015-Jun-27 07:32N 52°06' W 005°48'8 7.9
2015-Jun-27 06:33N 52°13' W 005°46'7 7.3
2015-Jun-27 05:34N 52°20' W 005°44'7 6.7
2015-Jun-27 04:32N 52°27' W 005°42'14 6.8
2015-Jun-27 02:31N 52°41' W 005°39'81 8.7
2015-Jun-26 17:09N 54°01' W 006°03'  
2015-Jun-24 04:30N 54°03' W 006°10'8 8.6
2015-Jun-24 03:32N 54°00' W 005°57'6 6.5
2015-Jun-24 02:33N 54°04' W 005°49'7 6.5
2015-Jun-24 01:30N 54°08' W 005°40'7 6.5
2015-Jun-24 00:29N 54°13' W 005°32'6 6.5
2015-Jun-23 23:33N 54°16' W 005°23'7 6.9
2015-Jun-23 22:33N 54°23' W 005°19'7 6.6
2015-Jun-23 21:33N 54°29' W 005°21'6 5.9
2015-Jun-23 20:33N 54°35' W 005°24'6 5.6
2015-Jun-23 19:33N 54°40' W 005°27'3 6.6
2015-Jun-23 19:06N 54°43' W 005°29'  
Track history (hours):
 
Tides and Currents Weather Stations Pressure Air Temp Water Temp Dewpoint Dewpoint Depression Visibility Wind Speed Wind Dir Waves Ship Positions

Priwall

Last reported at 2015-Jul-03 06:32 UTC. Time now 2015-Jul-06 11:23 UTC.
Position N 36°06' W 005°24'.

Length 88 m; draft 3.3 m.

Type: Ship. MMSI: 304739000.

Date/timePositionNaut miles runAvg speedWind from/ knotsBaromVisibWave heightAir tempDewpointWater temp
2015-Jul-03 06:32N 36°06' W 005°24'7 7.1
2015-Jul-03 05:32N 36°02' W 005°17'5 4.9
2015-Jul-03 04:33N 35°59' W 005°21'7 7.5
2015-Jul-03 03:34N 35°57' W 005°30'223 8.0
2015-Jul-01 23:33N 37°28' W 009°45'57 8.9
2015-Jul-01 17:08N 38°24' W 010°01'6 8.9
2015-Jul-01 16:29N 38°29' W 010°02'8 8.8
2015-Jul-01 15:31N 38°37' W 010°05'9 8.8
2015-Jul-01 14:33N 38°46' W 010°06'9 8.6
2015-Jul-01 13:33N 38°55' W 010°06'8 8.5
2015-Jul-01 12:34N 39°03' W 010°06'9 8.4
2015-Jul-01 11:33N 39°11' W 010°06'  
2015-Jun-27 08:33N 51°58' W 005°52'9 8.3
2015-Jun-27 07:32N 52°06' W 005°48'8 7.9
2015-Jun-27 06:33N 52°13' W 005°46'7 7.3
2015-Jun-27 05:34N 52°20' W 005°44'7 6.7
2015-Jun-27 04:32N 52°27' W 005°42'14 6.8
2015-Jun-27 02:31N 52°41' W 005°39'81 8.7
2015-Jun-26 17:09N 54°01' W 006°03'  
2015-Jun-24 04:30N 54°03' W 006°10'8 8.6
2015-Jun-24 03:32N 54°00' W 005°57'6 6.5
2015-Jun-24 02:33N 54°04' W 005°49'7 6.5
2015-Jun-24 01:30N 54°08' W 005°40'7 6.5
2015-Jun-24 00:29N 54°13' W 005°32'6 6.5
2015-Jun-23 23:33N 54°16' W 005°23'7 6.9
2015-Jun-23 22:33N 54°23' W 005°19'7 6.6
2015-Jun-23 21:33N 54°29' W 005°21'6 5.9
2015-Jun-23 20:33N 54°35' W 005°24'6 5.6
2015-Jun-23 19:33N 54°40' W 005°27'3 6.6
2015-Jun-23 19:06N 54°43' W 005°29'  

Dump ship's entire track history